sensor_id;sensor_type;location;lat;lon;timestamp;pressure;altitude;pressure_sealevel;temperature;humidity
5350;BME280;2697;42.144;24.794;2023-03-23T00:01:12;-19421.03;;;9.97;100.00
5350;BME280;2697;42.144;24.794;2023-03-23T00:03:45;-19420.44;;;9.95;100.00
5350;BME280;2697;42.144;24.794;2023-03-23T00:06:11;-19421.63;;;9.99;100.00
5350;BME280;2697;42.144;24.794;2023-03-23T00:08:43;-19423.72;;;10.07;100.00
5350;BME280;2697;42.144;24.794;2023-03-23T00:13:40;-19418.47;;;9.89;100.00
5350;BME280;2697;42.144;24.794;2023-03-23T00:16:06;-19414.56;;;9.76;100.00
5350;BME280;2697;42.144;24.794;2023-03-23T00:18:43;-19416.22;;;9.81;100.00
5350;BME280;2697;42.144;24.794;2023-03-23T00:21:09;-19415.94;;;9.80;100.00
5350;BME280;2697;42.144;24.794;2023-03-23T00:23:34;-19416.97;;;9.84;100.00
5350;BME280;2697;42.144;24.794;2023-03-23T00:26:00;-19410.81;;;9.63;100.00
5350;BME280;2697;42.144;24.794;2023-03-23T00:28:26;-19411.88;;;9.66;100.00
5350;BME280;2697;42.144;24.794;2023-03-23T00:31:03;-19409.63;;;9.59;100.00
5350;BME280;2697;42.144;24.794;2023-03-23T00:33:31;-19410.06;;;9.60;100.00
5350;BME280;2697;42.144;24.794;2023-03-23T00:36:04;-19408.13;;;9.54;100.00
5350;BME280;2697;42.144;24.794;2023-03-23T00:38:30;-19407.06;;;9.50;100.00
5350;BME280;2697;42.144;24.794;2023-03-23T00:40:55;-19406.16;;;9.47;100.00
5350;BME280;2697;42.144;24.794;2023-03-23T00:43:23;-19405.72;;;9.46;100.00
5350;BME280;2697;42.144;24.794;2023-03-23T00:45:50;-19405.72;;;9.46;100.00
5350;BME280;2697;42.144;24.794;2023-03-23T00:48:20;-19404.53;;;9.41;100.00
5350;BME280;2697;42.144;24.794;2023-03-23T00:50:45;-19400.91;;;9.29;100.00
5350;BME280;2697;42.144;24.794;2023-03-23T00:53:11;-19401.06;;;9.30;100.00
5350;BME280;2697;42.144;24.794;2023-03-23T00:55:37;-19404.22;;;9.40;100.00
5350;BME280;2697;42.144;24.794;2023-03-23T00:58:02;-19405.72;;;9.46;100.00
5350;BME280;2697;42.144;24.794;2023-03-23T01:00:28;-19405.56;;;9.45;100.00
5350;BME280;2697;42.144;24.794;2023-03-23T01:02:54;-19407.66;;;9.52;100.00
5350;BME280;2697;42.144;24.794;2023-03-23T01:05:19;-19404.53;;;9.41;100.00
5350;BME280;2697;42.144;24.794;2023-03-23T01:07:46;-19402.13;;;9.33;100.00
5350;BME280;2697;42.144;24.794;2023-03-23T01:10:12;-19403.00;;;9.36;100.00
5350;BME280;2697;42.144;24.794;2023-03-23T01:12:44;-19400.00;;;9.26;100.00
5350;BME280;2697;42.144;24.794;2023-03-23T01:15:13;-19396.56;;;9.14;100.00
5350;BME280;2697;42.144;24.794;2023-03-23T01:17:39;-19394.31;;;9.07;100.00
5350;BME280;2697;42.144;24.794;2023-03-23T01:20:06;-19399.88;;;9.26;100.00
5350;BME280;2697;42.144;24.794;2023-03-23T01:22:32;-19397.00;;;9.16;100.00
5350;BME280;2697;42.144;24.794;2023-03-23T01:24:57;-19391.31;;;8.97;100.00
5350;BME280;2697;42.144;24.794;2023-03-23T01:27:23;-19394.16;;;9.06;100.00
5350;BME280;2697;42.144;24.794;2023-03-23T01:29:48;-19392.81;;;9.02;100.00
5350;BME280;2697;42.144;24.794;2023-03-23T01:32:14;-19395.50;;;9.11;100.00
5350;BME280;2697;42.144;24.794;2023-03-23T01:34:39;-19395.81;;;9.12;100.00
5350;BME280;2697;42.144;24.794;2023-03-23T01:37:05;-19395.34;;;9.10;100.00
5350;BME280;2697;42.144;24.794;2023-03-23T01:39:30;-19394.91;;;9.09;100.00
5350;BME280;2697;42.144;24.794;2023-03-23T01:41:56;-19398.22;;;9.20;100.00
5350;BME280;2697;42.144;24.794;2023-03-23T01:46:47;-19400.00;;;9.26;100.00
5350;BME280;2697;42.144;24.794;2023-03-23T01:49:19;-19400.16;;;9.27;100.00
5350;BME280;2697;42.144;24.794;2023-03-23T01:51:50;-19399.56;;;9.25;100.00
5350;BME280;2697;42.144;24.794;2023-03-23T01:54:18;-19403.00;;;9.36;100.00
5350;BME280;2697;42.144;24.794;2023-03-23T01:56:56;-19403.31;;;9.37;100.00
5350;BME280;2697;42.144;24.794;2023-03-23T01:59:24;-19398.34;;;9.21;100.00
5350;BME280;2697;42.144;24.794;2023-03-23T02:01:51;-19395.06;;;9.09;100.00
5350;BME280;2697;42.144;24.794;2023-03-23T02:04:18;-19397.16;;;9.17;100.00
5350;BME280;2697;42.144;24.794;2023-03-23T02:06:43;-19394.75;;;9.08;100.00
5350;BME280;2697;42.144;24.794;2023-03-23T02:09:11;-19395.34;;;9.10;100.00
5350;BME280;2697;42.144;24.794;2023-03-23T02:11:39;-19393.25;;;9.03;100.00
5350;BME280;2697;42.144;24.794;2023-03-23T02:14:04;-19396.09;;;9.13;100.00
5350;BME280;2697;42.144;24.794;2023-03-23T02:16:40;-19397.59;;;9.18;100.00
5350;BME280;2697;42.144;24.794;2023-03-23T02:28:06;-19406.31;;;9.48;100.00
5350;BME280;2697;42.144;24.794;2023-03-23T02:30:31;-19406.47;;;9.48;100.00
5350;BME280;2697;42.144;24.794;2023-03-23T02:35:56;-19396.41;;;9.14;100.00
5350;BME280;2697;42.144;24.794;2023-03-23T02:41:08;-19393.09;;;9.03;100.00
5350;BME280;2697;42.144;24.794;2023-03-23T02:43:42;-19390.41;;;8.94;100.00
5350;BME280;2697;42.144;24.794;2023-03-23T02:46:10;-19390.56;;;8.94;100.00
5350;BME280;2697;42.144;24.794;2023-03-23T02:48:36;-19389.34;;;8.90;100.00
5350;BME280;2697;42.144;24.794;2023-03-23T02:51:04;-19391.00;;;8.96;100.00
5350;BME280;2697;42.144;24.794;2023-03-23T02:53:34;-19393.84;;;9.05;100.00
5350;BME280;2697;42.144;24.794;2023-03-23T02:56:02;-19399.88;;;9.26;100.00
5350;BME280;2697;42.144;24.794;2023-03-23T02:58:30;-19396.09;;;9.13;100.00
5350;BME280;2697;42.144;24.794;2023-03-23T03:00:56;-19402.25;;;9.34;100.00
5350;BME280;2697;42.144;24.794;2023-03-23T03:03:27;-19407.22;;;9.51;100.00
5350;BME280;2697;42.144;24.794;2023-03-23T03:06:18;-19404.97;;;9.43;100.00
5350;BME280;2697;42.144;24.794;2023-03-23T03:09:07;-19410.53;;;9.62;100.00
5350;BME280;2697;42.144;24.794;2023-03-23T03:11:36;-19408.41;;;9.55;100.00
5350;BME280;2697;42.144;24.794;2023-03-23T03:14:10;-19411.88;;;9.66;100.00
5350;BME280;2697;42.144;24.794;2023-03-23T03:17:03;-19406.91;;;9.50;100.00
5350;BME280;2697;42.144;24.794;2023-03-23T03:19:35;-19405.56;;;9.45;100.00
5350;BME280;2697;42.144;24.794;2023-03-23T03:22:04;-19405.13;;;9.43;100.00
5350;BME280;2697;42.144;24.794;2023-03-23T03:24:31;-19406.00;;;9.47;100.00
5350;BME280;2697;42.144;24.794;2023-03-23T03:26:58;-19406.00;;;9.47;100.00
5350;BME280;2697;42.144;24.794;2023-03-23T03:29:29;-19406.75;;;9.49;100.00
5350;BME280;2697;42.144;24.794;2023-03-23T03:31:59;-19409.63;;;9.59;100.00
5350;BME280;2697;42.144;24.794;2023-03-23T03:34:26;-19408.41;;;9.55;100.00
5350;BME280;2697;42.144;24.794;2023-03-23T03:36:54;-19401.97;;;9.33;100.00
5350;BME280;2697;42.144;24.794;2023-03-23T03:39:23;-19404.38;;;9.41;100.00
5350;BME280;2697;42.144;24.794;2023-03-23T03:41:49;-19403.75;;;9.39;100.00
5350;BME280;2697;42.144;24.794;2023-03-23T03:44:15;-19405.72;;;9.46;100.00
5350;BME280;2697;42.144;24.794;2023-03-23T03:46:40;-19399.41;;;9.24;100.00
5350;BME280;2697;42.144;24.794;2023-03-23T03:49:08;-19403.63;;;9.38;100.00
5350;BME280;2697;42.144;24.794;2023-03-23T03:51:35;-19397.59;;;9.18;100.00
5350;BME280;2697;42.144;24.794;2023-03-23T03:54:01;-19402.72;;;9.35;100.00
5350;BME280;2697;42.144;24.794;2023-03-23T03:56:27;-19406.00;;;9.47;100.00
5350;BME280;2697;42.144;24.794;2023-03-23T03:58:53;-19405.25;;;9.44;100.00
5350;BME280;2697;42.144;24.794;2023-03-23T04:01:20;-19401.06;;;9.30;100.00
5350;BME280;2697;42.144;24.794;2023-03-23T04:03:50;-19403.00;;;9.36;100.00
5350;BME280;2697;42.144;24.794;2023-03-23T04:06:17;-19403.75;;;9.39;100.00
5350;BME280;2697;42.144;24.794;2023-03-23T04:08:42;-19406.31;;;9.48;100.00
5350;BME280;2697;42.144;24.794;2023-03-23T04:11:11;-19402.13;;;9.33;100.00
5350;BME280;2697;42.144;24.794;2023-03-23T04:13:38;-19397.59;;;9.18;100.00
5350;BME280;2697;42.144;24.794;2023-03-23T04:16:04;-19400.63;;;9.28;100.00
5350;BME280;2697;42.144;24.794;2023-03-23T04:18:30;-19387.53;;;8.84;100.00
5350;BME280;2697;42.144;24.794;2023-03-23T04:20:57;-19393.84;;;9.05;100.00
5350;BME280;2697;42.144;24.794;2023-03-23T04:23:25;-19387.69;;;8.84;100.00
5350;BME280;2697;42.144;24.794;2023-03-23T04:25:51;-19384.41;;;8.73;100.00
5350;BME280;2697;42.144;24.794;2023-03-23T04:28:18;-19388.00;;;8.85;100.00
5350;BME280;2697;42.144;24.794;2023-03-23T04:30:46;-19386.66;;;8.81;100.00
5350;BME280;2697;42.144;24.794;2023-03-23T04:33:14;-19388.00;;;8.85;100.00
5350;BME280;2697;42.144;24.794;2023-03-23T04:35:42;-19391.75;;;8.98;100.00
5350;BME280;2697;42.144;24.794;2023-03-23T04:38:11;-19388.59;;;8.88;100.00
5350;BME280;2697;42.144;24.794;2023-03-23T04:40:39;-19389.81;;;8.92;100.00
5350;BME280;2697;42.144;24.794;2023-03-23T04:43:05;-19382.00;;;8.65;100.00
5350;BME280;2697;42.144;24.794;2023-03-23T04:45:33;-19381.09;;;8.62;100.00
5350;BME280;2697;42.144;24.794;2023-03-23T04:47:59;-19380.50;;;8.60;100.00
5350;BME280;2697;42.144;24.794;2023-03-23T04:50:28;-19382.91;;;8.68;100.00
5350;BME280;2697;42.144;24.794;2023-03-23T04:52:56;-19383.03;;;8.69;100.00
5350;BME280;2697;42.144;24.794;2023-03-23T04:55:23;-19385.91;;;8.78;100.00
5350;BME280;2697;42.144;24.794;2023-03-23T04:57:49;-19388.00;;;8.85;100.00
5350;BME280;2697;42.144;24.794;2023-03-23T05:00:15;-19383.19;;;8.69;100.00
5350;BME280;2697;42.144;24.794;2023-03-23T05:02:43;-19388.16;;;8.86;100.00
5350;BME280;2697;42.144;24.794;2023-03-23T05:05:11;-19392.66;;;9.01;100.00
5350;BME280;2697;42.144;24.794;2023-03-23T05:07:41;-19394.00;;;9.06;100.00
5350;BME280;2697;42.144;24.794;2023-03-23T05:10:08;-19396.84;;;9.16;100.00
5350;BME280;2697;42.144;24.794;2023-03-23T05:12:34;-19403.91;;;9.39;100.00
5350;BME280;2697;42.144;24.794;2023-03-23T05:15:00;-19409.03;;;9.57;100.00
5350;BME280;2697;42.144;24.794;2023-03-23T05:17:26;-19418.31;;;9.88;100.00
5350;BME280;2697;42.144;24.794;2023-03-23T05:19:51;-19423.13;;;10.05;100.00
5350;BME280;2697;42.144;24.794;2023-03-23T05:22:17;-19416.22;;;9.81;100.00
5350;BME280;2697;42.144;24.794;2023-03-23T05:24:42;-19407.81;;;9.53;100.00
5350;BME280;2697;42.144;24.794;2023-03-23T05:27:09;-19419.81;;;9.93;100.00
5350;BME280;2697;42.144;24.794;2023-03-23T05:29:35;-19424.47;;;10.09;100.00
5350;BME280;2697;42.144;24.794;2023-03-23T05:32:04;-19426.13;;;10.15;100.00
5350;BME280;2697;42.144;24.794;2023-03-23T05:34:31;-19428.38;;;10.22;100.00
5350;BME280;2697;42.144;24.794;2023-03-23T05:37:01;-19421.63;;;9.99;100.00
5350;BME280;2697;42.144;24.794;2023-03-23T05:39:28;-19402.72;;;9.35;100.00
5350;BME280;2697;42.144;24.794;2023-03-23T05:41:54;-19398.81;;;9.22;100.00
5350;BME280;2697;42.144;24.794;2023-03-23T05:44:20;-19407.53;;;9.52;100.00
5350;BME280;2697;42.144;24.794;2023-03-23T05:46:46;-19408.41;;;9.55;100.00
5350;BME280;2697;42.144;24.794;2023-03-23T05:49:12;-19417.56;;;9.86;100.00
5350;BME280;2697;42.144;24.794;2023-03-23T05:51:37;-19416.69;;;9.83;100.00
5350;BME280;2697;42.144;24.794;2023-03-23T05:54:03;-19422.38;;;10.02;100.00
5350;BME280;2697;42.144;24.794;2023-03-23T05:56:29;-19422.81;;;10.04;100.00
5350;BME280;2697;42.144;24.794;2023-03-23T05:58:56;-19429.59;;;10.26;100.00
5350;BME280;2697;42.144;24.794;2023-03-23T06:01:21;-19430.03;;;10.28;100.00
5350;BME280;2697;42.144;24.794;2023-03-23T06:03:46;-19432.13;;;10.35;100.00
5350;BME280;2697;42.144;24.794;2023-03-23T06:06:14;-19430.34;;;10.29;100.00
5350;BME280;2697;42.144;24.794;2023-03-23T06:08:39;-19430.34;;;10.29;100.00
5350;BME280;2697;42.144;24.794;2023-03-23T06:11:04;-19424.78;;;10.10;100.00
5350;BME280;2697;42.144;24.794;2023-03-23T06:13:31;-19431.22;;;10.32;100.00
5350;BME280;2697;42.144;24.794;2023-03-23T06:15:57;-19439.94;;;10.62;100.00
5350;BME280;2697;42.144;24.794;2023-03-23T06:18:23;-19435.44;;;10.46;100.00
5350;BME280;2697;42.144;24.794;2023-03-23T06:20:49;-19436.63;;;10.50;100.00
5350;BME280;2697;42.144;24.794;2023-03-23T06:23:15;-19446.25;;;10.83;100.00
5350;BME280;2697;42.144;24.794;2023-03-23T06:25:41;-19430.19;;;10.28;100.00
5350;BME280;2697;42.144;24.794;2023-03-23T06:28:07;-19436.78;;;10.51;100.00
5350;BME280;2697;42.144;24.794;2023-03-23T06:30:34;-19445.94;;;10.82;100.00
5350;BME280;2697;42.144;24.794;2023-03-23T06:33:00;-19440.25;;;10.63;100.00
5350;BME280;2697;42.144;24.794;2023-03-23T06:35:25;-19440.38;;;10.63;100.00
5350;BME280;2697;42.144;24.794;2023-03-23T06:37:51;-19431.53;;;10.33;100.00
5350;BME280;2697;42.144;24.794;2023-03-23T06:40:18;-19436.63;;;10.50;100.00
5350;BME280;2697;42.144;24.794;2023-03-23T06:42:44;-19432.75;;;10.37;100.00
5350;BME280;2697;42.144;24.794;2023-03-23T06:45:10;-19433.94;;;10.41;100.00
5350;BME280;2697;42.144;24.794;2023-03-23T06:47:35;-19438.59;;;10.57;100.00
5350;BME280;2697;42.144;24.794;2023-03-23T06:50:00;-19448.03;;;10.89;100.00
5350;BME280;2697;42.144;24.794;2023-03-23T06:52:26;-19435.88;;;10.48;100.00
5350;BME280;2697;42.144;24.794;2023-03-23T06:54:52;-19449.25;;;10.93;100.00
5350;BME280;2697;42.144;24.794;2023-03-23T06:57:18;-19443.53;;;10.74;100.00
5350;BME280;2697;42.144;24.794;2023-03-23T06:59:44;-19436.03;;;10.48;100.00
5350;BME280;2697;42.144;24.794;2023-03-23T07:02:11;-19439.94;;;10.62;100.00
5350;BME280;2697;42.144;24.794;2023-03-23T07:04:37;-19449.53;;;10.94;100.00
5350;BME280;2697;42.144;24.794;2023-03-23T07:07:10;-19107.25;;;10.72;100.00
5350;BME280;2697;42.144;24.794;2023-03-23T07:09:37;-19110.78;;;10.84;100.00
5350;BME280;2697;42.144;24.794;2023-03-23T07:12:02;-16445.81;;;11.16;100.00
5350;BME280;2697;42.144;24.794;2023-03-23T07:14:28;-13762.75;;;10.81;100.00
5350;BME280;2697;42.144;24.794;2023-03-23T07:16:54;-15763.72;;;10.60;100.00
5350;BME280;2697;42.144;24.794;2023-03-23T07:19:19;-19097.97;;;10.40;100.00
5350;BME280;2697;42.144;24.794;2023-03-23T07:21:45;-18109.84;;;10.89;100.00
5350;BME280;2697;42.144;24.794;2023-03-23T07:24:11;-17446.81;;;11.08;100.00
5350;BME280;2697;42.144;24.794;2023-03-23T07:26:42;-12096.44;;;11.16;100.00
5350;BME280;2697;42.144;24.794;2023-03-23T07:29:08;-11757.16;;;10.90;100.00
5350;BME280;2697;42.144;24.794;2023-03-23T07:31:34;-13094.81;;;10.86;100.00
5350;BME280;2697;42.144;24.794;2023-03-23T07:34:00;-11091.16;;;11.10;100.00
5350;BME280;2697;42.144;24.794;2023-03-23T07:36:26;-9086.41;;;11.47;100.00
5350;BME280;2697;42.144;24.794;2023-03-23T07:38:52;-1705.22;;;11.54;100.00
5350;BME280;2697;42.144;24.794;2023-03-23T07:41:18;-1369.28;;;11.33;100.00
5350;BME280;2697;42.144;24.794;2023-03-23T07:43:44;-3048.72;;;11.63;100.00
5350;BME280;2697;42.144;24.794;2023-03-23T07:46:10;5359.59;;;12.01;100.00
5350;BME280;2697;42.144;24.794;2023-03-23T07:48:36;1993.13;;;11.92;100.00
5350;BME280;2697;42.144;24.794;2023-03-23T07:51:03;16158.44;;;12.30;100.00
5350;BME280;2697;42.144;24.794;2023-03-23T07:53:28;19195.44;;;12.15;100.00
5350;BME280;2697;42.144;24.794;2023-03-23T07:55:54;22576.38;;;12.13;100.00
5350;BME280;2697;42.144;24.794;2023-03-23T07:58:19;24605.03;;;12.09;100.00
5350;BME280;2697;42.144;24.794;2023-03-23T08:00:48;20895.28;;;12.41;100.00
5350;BME280;2697;42.144;24.794;2023-03-23T08:03:15;25304.84;;;12.62;100.00
5350;BME280;2697;42.144;24.794;2023-03-23T08:05:41;34812.06;;;12.77;100.00
5350;BME280;2697;42.144;24.794;2023-03-23T08:08:08;38227.06;;;13.03;100.00
5350;BME280;2697;42.144;24.794;2023-03-23T08:10:35;60383.50;;;12.87;100.00
5350;BME280;2697;42.144;24.794;2023-03-23T08:13:01;53545.69;;;12.82;100.00
5350;BME280;2697;42.144;24.794;2023-03-23T08:15:27;36859.72;;;12.92;100.00
5350;BME280;2697;42.144;24.794;2023-03-23T08:17:54;31104.47;;;13.30;100.00
5350;BME280;2697;42.144;24.794;2023-03-23T08:20:19;56672.00;;;13.38;100.00
5350;BME280;2697;42.144;24.794;2023-03-23T08:22:50;69020.41;;;13.55;100.00
5350;BME280;2697;42.144;24.794;2023-03-23T08:25:18;73181.19;;;13.89;100.00
5350;BME280;2697;42.144;24.794;2023-03-23T08:27:43;105952.03;;;13.84;100.00
5350;BME280;2697;42.144;24.794;2023-03-23T08:30:14;106313.75;;;13.93;100.00
5350;BME280;2697;42.144;24.794;2023-03-23T08:32:40;151086.28;;;14.14;100.00
5350;BME280;2697;42.144;24.794;2023-03-23T08:35:08;154522.06;;;14.25;100.00
5350;BME280;2697;42.144;24.794;2023-03-23T08:37:35;149732.59;;;14.48;100.00
5350;BME280;2697;42.144;24.794;2023-03-23T08:40:00;156339.94;;;14.61;100.00
5350;BME280;2697;42.144;24.794;2023-03-23T08:42:32;156351.81;;;14.66;100.00
5350;BME280;2697;42.144;24.794;2023-03-23T08:44:57;109794.16;;;14.01;100.00
5350;BME280;2697;42.144;24.794;2023-03-23T08:47:22;91522.47;;;14.46;100.00
5350;BME280;2697;42.144;24.794;2023-03-23T08:49:48;85637.38;;;14.36;100.00
5350;BME280;2697;42.144;24.794;2023-03-23T08:52:18;97401.72;;;14.47;100.00
5350;BME280;2697;42.144;24.794;2023-03-23T08:54:43;120405.53;;;14.97;100.00
5350;BME280;2697;42.144;24.794;2023-03-23T08:57:12;156493.19;;;15.20;100.00
5350;BME280;2697;42.144;24.794;2023-03-23T08:59:38;156402.00;;;14.85;100.00
5350;BME280;2697;42.144;24.794;2023-03-23T09:02:03;156465.44;;;15.09;100.00
5350;BME280;2697;42.144;24.794;2023-03-23T09:04:29;156605.59;;;15.63;100.00
5350;BME280;2697;42.144;24.794;2023-03-23T09:06:55;156592.31;;;15.58;100.00
5350;BME280;2697;42.144;24.794;2023-03-23T09:09:22;156669.03;;;15.88;100.00
5350;BME280;2697;42.144;24.794;2023-03-23T09:11:47;156665.06;;;15.86;100.00
5350;BME280;2697;42.144;24.794;2023-03-23T09:14:13;156638.63;;;15.76;100.00
5350;BME280;2697;42.144;24.794;2023-03-23T09:16:38;156643.91;;;15.78;100.00
5350;BME280;2697;42.144;24.794;2023-03-23T09:19:05;156704.75;;;16.02;100.00
5350;BME280;2697;42.144;24.794;2023-03-23T09:21:30;156588.34;;;15.57;100.00
5350;BME280;2697;42.144;24.794;2023-03-23T09:23:56;156782.78;;;16.32;100.00
5350;BME280;2697;42.144;24.794;2023-03-23T09:26:25;156778.81;;;16.30;100.00
5350;BME280;2697;42.144;24.794;2023-03-23T09:28:51;156769.53;;;16.27;100.00
5350;BME280;2697;42.144;24.794;2023-03-23T09:31:17;156830.38;;;16.50;100.00
5350;BME280;2697;42.144;24.794;2023-03-23T09:33:45;156813.19;;;16.43;100.00
5350;BME280;2697;42.144;24.794;2023-03-23T09:36:11;156699.44;;;16.00;100.00
5350;BME280;2697;42.144;24.794;2023-03-23T09:38:39;156782.78;;;16.32;100.00
5350;BME280;2697;42.144;24.794;2023-03-23T09:43:53;156981.25;;;17.08;98.80
5350;BME280;2697;42.144;24.794;2023-03-23T09:49:03;157059.31;;;17.38;93.88
5350;BME280;2697;42.144;24.794;2023-03-23T09:51:57;157235.50;;;18.06;86.62
5350;BME280;2697;42.144;24.794;2023-03-23T09:54:30;157065.97;;;17.41;87.99
5350;BME280;2697;42.144;24.794;2023-03-23T09:56:59;157015.63;;;17.21;88.90
5350;BME280;2697;42.144;24.794;2023-03-23T09:59:34;157124.22;;;17.63;81.16
5350;BME280;2697;42.144;24.794;2023-03-23T10:02:27;156975.97;;;17.06;84.81
5350;BME280;2697;42.144;24.794;2023-03-23T10:04:56;157031.53;;;17.27;79.56
5350;BME280;2697;42.144;24.794;2023-03-23T10:07:25;156875.38;;;16.67;79.87
5350;BME280;2697;42.144;24.794;2023-03-23T10:09:56;157063.28;;;17.39;77.85
5350;BME280;2697;42.144;24.794;2023-03-23T10:15:22;156982.56;;;17.08;77.64
5350;BME280;2697;42.144;24.794;2023-03-23T10:17:59;157087.13;;;17.49;75.51
5350;BME280;2697;42.144;24.794;2023-03-23T10:20:37;157164.00;;;17.78;69.87
5350;BME280;2697;42.144;24.794;2023-03-23T10:25:52;157138.78;;;17.69;69.95
5350;BME280;2697;42.144;24.794;2023-03-23T10:28:35;157038.16;;;17.30;70.82
5350;BME280;2697;42.144;24.794;2023-03-23T10:31:02;157157.34;;;17.76;70.09
5350;BME280;2697;42.144;24.794;2023-03-23T10:36:03;157023.63;;;17.24;71.37
5350;BME280;2697;42.144;24.794;2023-03-23T10:38:45;157280.50;;;18.23;66.44
5350;BME280;2697;42.144;24.794;2023-03-23T10:41:17;157403.72;;;18.70;64.24
5350;BME280;2697;42.144;24.794;2023-03-23T10:43:44;157468.66;;;18.95;62.36
5350;BME280;2697;42.144;24.794;2023-03-23T10:46:33;157279.16;;;18.22;63.17
5350;BME280;2697;42.144;24.794;2023-03-23T10:49:10;157366.59;;;18.56;61.26
5350;BME280;2697;42.144;24.794;2023-03-23T10:51:42;157283.19;;;18.24;61.36
5350;BME280;2697;42.144;24.794;2023-03-23T10:54:09;157207.66;;;17.95;61.11
5350;BME280;2697;42.144;24.794;2023-03-23T10:56:38;157508.44;;;19.11;57.20
5350;BME280;2697;42.144;24.794;2023-03-23T10:59:46;157733.84;;;19.97;56.66
5350;BME280;2697;42.144;24.794;2023-03-23T11:02:15;157569.38;;;19.34;61.02
5350;BME280;2697;42.144;24.794;2023-03-23T11:04:45;157512.41;;;19.12;59.03
5350;BME280;2697;42.144;24.794;2023-03-23T11:07:18;157603.88;;;19.47;57.77
5350;BME280;2697;42.144;24.794;2023-03-23T11:09:54;157613.13;;;19.51;59.91
5350;BME280;2697;42.144;24.794;2023-03-23T11:12:20;157420.97;;;18.77;60.70
5350;BME280;2697;42.144;24.794;2023-03-23T11:14:48;157707.31;;;19.87;57.32
5350;BME280;2697;42.144;24.794;2023-03-23T11:17:25;157834.63;;;20.36;56.25
5350;BME280;2697;42.144;24.794;2023-03-23T11:19:52;157930.19;;;20.72;54.24
5350;BME280;2697;42.144;24.794;2023-03-23T11:22:29;157760.38;;;20.07;55.85
5350;BME280;2697;42.144;24.794;2023-03-23T11:25:00;157476.59;;;18.98;57.64
5350;BME280;2697;42.144;24.794;2023-03-23T11:27:28;157244.75;;;18.09;59.20
5350;BME280;2697;42.144;24.794;2023-03-23T11:29:55;157317.59;;;18.37;59.88
5350;BME280;2697;42.144;24.794;2023-03-23T11:32:28;157411.72;;;18.73;60.22
5350;BME280;2697;42.144;24.794;2023-03-23T11:34:59;157410.38;;;18.73;65.00
5350;BME280;2697;42.144;24.794;2023-03-23T11:39:59;157519.03;;;19.15;64.05
5350;BME280;2697;42.144;24.794;2023-03-23T11:43:27;157511.09;;;19.12;63.96
5350;BME280;2697;42.144;24.794;2023-03-23T11:50:59;157463.38;;;18.93;66.91
5350;BME280;2697;42.144;24.794;2023-03-23T11:56:35;157208.97;;;17.95;71.06
5350;BME280;2697;42.144;24.794;2023-03-23T11:59:01;157320.25;;;18.38;68.23
5350;BME280;2697;42.144;24.794;2023-03-23T12:17:14;157402.41;;;18.70;64.88
5350;BME280;2697;42.144;24.794;2023-03-23T12:28:11;157222.25;;;18.01;65.52
5350;BME280;2697;42.144;24.794;2023-03-23T12:40:09;157316.28;;;18.37;64.15
5350;BME280;2697;42.144;24.794;2023-03-23T12:42:07;157271.22;;;18.19;67.37
5350;BME280;2697;42.144;24.794;2023-03-23T12:44:40;157288.47;;;18.26;66.80
5350;BME280;2697;42.144;24.794;2023-03-23T12:49:50;157358.69;;;18.53;64.55
5350;BME280;2697;42.144;24.794;2023-03-23T12:52:26;157383.84;;;18.63;64.76
5350;BME280;2697;42.144;24.794;2023-03-23T12:58:42;157179.84;;;17.84;64.59
5350;BME280;2697;42.144;24.794;2023-03-23T13:00:56;157336.16;;;18.44;63.96
5350;BME280;2697;42.144;24.794;2023-03-23T13:03:28;157483.25;;;19.01;61.97
5350;BME280;2697;42.144;24.794;2023-03-23T13:06:15;157519.03;;;19.15;61.11
5350;BME280;2697;42.144;24.794;2023-03-23T13:09:01;157311.00;;;18.35;64.92
5350;BME280;2697;42.144;24.794;2023-03-23T13:11:35;157423.59;;;18.78;61.47
5350;BME280;2697;42.144;24.794;2023-03-23T13:16:54;157283.19;;;18.24;64.49
5350;BME280;2697;42.144;24.794;2023-03-23T13:19:30;157422.28;;;18.77;62.17
5350;BME280;2697;42.144;24.794;2023-03-23T13:22:15;157352.00;;;18.50;64.01
5350;BME280;2697;42.144;24.794;2023-03-23T13:24:53;157438.19;;;18.84;60.99
5350;BME280;2697;42.144;24.794;2023-03-23T13:27:24;157472.63;;;18.97;61.16
5350;BME280;2697;42.144;24.794;2023-03-23T13:29:53;157391.81;;;18.66;61.96
5350;BME280;2697;42.144;24.794;2023-03-23T13:32:19;157219.59;;;18.00;64.89
5350;BME280;2697;42.144;24.794;2023-03-23T13:34:46;157284.50;;;18.25;63.19
5350;BME280;2697;42.144;24.794;2023-03-23T13:39:52;157238.13;;;18.07;64.70
5350;BME280;2697;42.144;24.794;2023-03-23T13:42:23;157075.22;;;17.44;68.21
5350;BME280;2697;42.144;24.794;2023-03-23T13:50:25;157419.66;;;18.76;63.76
5350;BME280;2697;42.144;24.794;2023-03-23T13:52:54;157301.69;;;18.31;63.96
5350;BME280;2697;42.144;24.794;2023-03-23T13:55:48;157231.47;;;18.04;65.49
5350;BME280;2697;42.144;24.794;2023-03-23T13:58:44;157114.97;;;17.59;66.08
5350;BME280;2697;42.144;24.794;2023-03-23T14:01:19;157177.22;;;17.83;66.15
5350;BME280;2697;42.144;24.794;2023-03-23T14:03:49;157195.75;;;17.90;64.40
5350;BME280;2697;42.144;24.794;2023-03-23T14:06:23;157109.63;;;17.57;65.64
5350;BME280;2697;42.144;24.794;2023-03-23T14:08:53;157187.84;;;17.87;64.92
5350;BME280;2697;42.144;24.794;2023-03-23T14:11:29;157197.06;;;17.91;64.76
5350;BME280;2697;42.144;24.794;2023-03-23T14:14:03;157206.31;;;17.94;62.98
5350;BME280;2697;42.144;24.794;2023-03-23T14:16:44;157002.44;;;17.16;65.43
5350;BME280;2697;42.144;24.794;2023-03-23T14:19:17;156990.50;;;17.12;67.54
5350;BME280;2697;42.144;24.794;2023-03-23T14:21:50;156904.53;;;16.78;69.77
5350;BME280;2697;42.144;24.794;2023-03-23T14:24:39;156949.50;;;16.96;68.42
5350;BME280;2697;42.144;24.794;2023-03-23T14:29:30;157099.06;;;17.53;66.91
5350;BME280;2697;42.144;24.794;2023-03-23T14:31:57;157081.84;;;17.47;67.70
5350;BME280;2697;42.144;24.794;2023-03-23T14:34:29;157032.88;;;17.28;69.99
5350;BME280;2697;42.144;24.794;2023-03-23T14:36:56;157023.63;;;17.24;68.87
5350;BME280;2697;42.144;24.794;2023-03-23T14:39:30;157039.47;;;17.30;67.33
5350;BME280;2697;42.144;24.794;2023-03-23T14:42:09;157034.19;;;17.28;67.53
5350;BME280;2697;42.144;24.794;2023-03-23T14:44:43;157142.81;;;17.70;65.37